KAGS/AGS METAR and TAF weather

Enter ICAO airport designator
Station Type Date Time Source
KAGS METAR 2020/10/20 16:53 UTC NOAA

KAGS 201653Z 03008KT 10SM CLR 26/16 A3020 RMK AO2 SLP226 T02610161


Station Type Date Time Source
KAGS Decoded METAR 2020/10/20 16:53 UTC NOAA

AUGUSTA BUSH FIELD, GA, United States (KAGS) 33-22N 081-58W 44M
Oct 20, 2020 - 12:53 PM EDT / 2020.10.20 1653 UTC
Wind: from the NNE (030 degrees) at 9 MPH (8 KT):0
Visibility: 10 mile(s):0
Sky conditions: clear
Temperature: 79.0 F (26.1 C)
Dew Point: 61.0 F (16.1 C)
Relative Humidity: 54%
Pressure (altimeter): 30.2 in. Hg (1022 hPa)
ob: KAGS 201653Z 03008KT 10SM CLR 26/16 A3020 RMK AO2 SLP226 T02610161
cycle: 17

Station Type Date Time Source
KAGS TAF 2020/10/20 18:30 UTC NOAA

TAF KAGS 201727Z 2018/2118 06006KT P6SM SCT040 BKN250
FM202300 04003KT P6SM SCT250
FM210700 00000KT 4SM BR BKN010
FM210900 00000KT 1SM BR VV003
FM211500 04005KT 6SM HZ BKN015

Example: see airport list